createdAt,value
2023-05-10T00:00:41.312Z,0.60
2023-05-10T00:03:08.102Z,0.77
2023-05-10T00:05:34.802Z,0.60
2023-05-10T00:08:01.454Z,0.57
2023-05-10T00:10:28.289Z,0.50
2023-05-10T00:12:55.181Z,0.50
2023-05-10T00:15:21.937Z,0.40
2023-05-10T00:17:50.953Z,0.50
2023-05-10T00:20:18.112Z,0.30
2023-05-10T00:22:44.915Z,0.40
2023-05-10T00:25:11.654Z,0.30
2023-05-10T00:27:38.784Z,0.37
2023-05-10T00:30:06.086Z,0.40
2023-05-10T00:32:32.762Z,0.30
2023-05-10T00:34:59.531Z,0.30
2023-05-10T00:37:26.160Z,0.30
2023-05-10T00:39:52.827Z,0.23
2023-05-10T00:42:19.951Z,0.30
2023-05-10T00:44:47.580Z,0.20
2023-05-10T00:47:14.244Z,0.20
2023-05-10T00:49:41.579Z,0.30
2023-05-10T00:52:08.918Z,0.30
2023-05-10T00:54:35.668Z,0.10
2023-05-10T00:57:02.289Z,0.30
2023-05-10T00:59:29.721Z,0.20
2023-05-10T01:01:56.366Z,0.10
2023-05-10T01:04:26.480Z,0.20
2023-05-10T01:06:54.497Z,0.13
2023-05-10T01:09:22.283Z,0.20
2023-05-10T01:11:49.123Z,0.10
2023-05-10T01:14:16.281Z,0.07
2023-05-10T01:16:43.573Z,0.17
2023-05-10T01:19:18.017Z,0.13
2023-05-10T01:22:01.189Z,0.40
2023-05-10T01:24:59.839Z,0.23
2023-05-10T01:28:04.291Z,0.23
2023-05-10T01:30:47.113Z,0.30
2023-05-10T01:33:35.529Z,0.20
2023-05-10T01:36:28.198Z,0.33
2023-05-10T01:39:15.337Z,0.13
2023-05-10T01:41:54.772Z,0.30
2023-05-10T01:44:38.866Z,0.13
2023-05-10T01:47:12.698Z,0.20
2023-05-10T01:49:54.499Z,0.10
2023-05-10T01:52:26.541Z,0.10
2023-05-10T01:54:56.955Z,0.30
2023-05-10T01:57:25.825Z,0.40
2023-05-10T01:59:53.261Z,0.27
2023-05-10T02:02:21.857Z,0.30
2023-05-10T02:04:50.797Z,0.20
2023-05-10T02:07:18.100Z,0.20
2023-05-10T02:09:48.957Z,0.20
2023-05-10T02:12:16.689Z,0.33
2023-05-10T02:14:44.575Z,0.30
2023-05-10T02:17:11.225Z,0.37
2023-05-10T02:19:39.513Z,0.33
2023-05-10T02:22:06.644Z,0.30
2023-05-10T02:24:33.860Z,0.20
2023-05-10T02:27:01.233Z,0.23
2023-05-10T02:29:28.344Z,0.30
2023-05-10T02:31:56.620Z,0.30
2023-05-10T02:34:24.514Z,0.30
2023-05-10T02:36:51.907Z,0.30
2023-05-10T02:39:20.720Z,0.40
2023-05-10T02:41:48.058Z,0.27
2023-05-10T02:44:16.714Z,0.30
2023-05-10T02:46:44.298Z,0.30
2023-05-10T02:49:11.151Z,0.90
2023-05-10T02:51:46.099Z,0.60
2023-05-10T02:54:16.772Z,0.37
2023-05-10T02:56:48.806Z,0.30
2023-05-10T02:59:15.785Z,0.30
2023-05-10T03:01:42.508Z,0.30
2023-05-10T03:04:09.186Z,0.40
2023-05-10T03:06:35.867Z,0.20
2023-05-10T03:09:04.226Z,0.30
2023-05-10T03:12:08.323Z,0.37
2023-05-10T03:14:41.602Z,0.33
2023-05-10T03:17:31.942Z,0.77
2023-05-10T03:20:03.311Z,0.50
2023-05-10T03:22:33.427Z,0.63
2023-05-10T03:25:01.485Z,0.90
2023-05-10T03:27:29.275Z,1.03
2023-05-10T03:29:57.053Z,1.10
2023-05-10T03:32:24.545Z,1.23
2023-05-10T03:34:51.283Z,1.00
2023-05-10T03:37:18.035Z,1.07
2023-05-10T03:39:44.661Z,1.30
2023-05-10T03:42:12.826Z,1.10
2023-05-10T03:44:40.707Z,1.10
2023-05-10T03:47:07.560Z,0.90
2023-05-10T03:49:34.260Z,1.10
2023-05-10T03:52:00.848Z,0.90
2023-05-10T03:54:27.491Z,1.17
2023-05-10T03:56:54.149Z,0.90
2023-05-10T03:59:20.996Z,0.93
2023-05-10T04:01:47.695Z,0.90
2023-05-10T04:04:14.433Z,0.90
2023-05-10T04:06:41.134Z,1.00
2023-05-10T04:09:07.828Z,1.00
2023-05-10T04:11:34.524Z,0.80
2023-05-10T04:14:01.239Z,0.80
2023-05-10T04:16:28.012Z,0.80
2023-05-10T04:18:54.726Z,0.67
2023-05-10T04:21:21.378Z,0.70
2023-05-10T04:23:48.443Z,0.70
2023-05-10T04:26:15.280Z,0.70
2023-05-10T04:28:42.083Z,0.70
2023-05-10T04:31:10.144Z,0.60
2023-05-10T04:33:37.590Z,0.70
2023-05-10T04:36:04.747Z,0.67
2023-05-10T04:38:31.502Z,0.70
2023-05-10T04:41:09.056Z,0.60
2023-05-10T04:43:36.345Z,0.50
2023-05-10T04:46:03.511Z,0.70
2023-05-10T04:48:30.327Z,0.53
2023-05-10T04:50:57.431Z,0.60
2023-05-10T04:53:24.486Z,0.50
2023-05-10T04:55:51.125Z,0.60
2023-05-10T04:58:17.857Z,0.43
2023-05-10T05:00:45.232Z,0.60
2023-05-10T05:03:11.976Z,0.50
2023-05-10T05:05:38.705Z,0.50
2023-05-10T05:08:05.498Z,0.60
2023-05-10T05:10:32.147Z,0.50
2023-05-10T05:13:01.076Z,0.57
2023-05-10T05:15:28.233Z,0.50
2023-05-10T05:17:54.894Z,0.40
2023-05-10T05:20:21.619Z,0.60
2023-05-10T05:22:48.335Z,0.60
2023-05-10T05:25:16.149Z,0.50
2023-05-10T05:27:43.258Z,0.60
2023-05-10T05:30:10.385Z,0.80
2023-05-10T05:32:37.116Z,0.60
2023-05-10T05:35:03.848Z,0.70
2023-05-10T05:37:32.523Z,0.80
2023-05-10T05:39:59.610Z,0.60
2023-05-10T05:42:28.152Z,0.70
2023-05-10T05:44:55.273Z,0.60
2023-05-10T05:47:21.923Z,0.60
2023-05-10T05:49:48.988Z,0.77
2023-05-10T05:52:15.591Z,0.70
2023-05-10T05:54:43.071Z,0.70
2023-05-10T05:57:10.028Z,0.60
2023-05-10T05:59:36.700Z,0.67
2023-05-10T06:02:03.365Z,0.80
2023-05-10T06:04:30.079Z,0.70
2023-05-10T06:06:56.775Z,0.73
2023-05-10T06:09:25.442Z,0.70
2023-05-10T06:11:52.134Z,0.70
2023-05-10T06:14:19.343Z,0.70
2023-05-10T06:16:46.044Z,0.90
2023-05-10T06:19:12.756Z,0.70
2023-05-10T06:21:39.417Z,0.80
2023-05-10T06:24:07.574Z,0.93
2023-05-10T06:26:34.549Z,0.77
2023-05-10T06:29:02.550Z,0.80
2023-05-10T06:31:29.236Z,0.80
2023-05-10T06:33:56.822Z,0.90
2023-05-10T06:36:25.633Z,0.77
2023-05-10T06:38:52.306Z,0.80
2023-05-10T06:41:19.473Z,0.80
2023-05-10T06:43:46.363Z,0.70
2023-05-10T06:46:13.033Z,0.90
2023-05-10T06:48:39.678Z,0.70
2023-05-10T06:51:06.786Z,0.80
2023-05-10T06:53:33.883Z,0.60
2023-05-10T06:56:00.583Z,0.60
2023-05-10T06:58:27.436Z,0.80
2023-05-10T07:00:54.234Z,0.90
2023-05-10T07:03:20.991Z,0.87
2023-05-10T07:05:47.787Z,0.80
2023-05-10T07:08:15.458Z,0.70
2023-05-10T07:10:42.066Z,0.90
2023-05-10T07:13:08.807Z,0.70
2023-05-10T07:15:35.496Z,0.70
2023-05-10T07:18:02.766Z,0.87
2023-05-10T07:20:29.506Z,0.80
2023-05-10T07:22:56.133Z,0.70
2023-05-10T07:25:22.786Z,0.80
2023-05-10T07:27:49.633Z,0.77
2023-05-10T07:30:16.831Z,0.90
2023-05-10T07:32:43.568Z,0.80
2023-05-10T07:35:10.382Z,0.80
2023-05-10T07:37:37.055Z,0.63
2023-05-10T07:40:03.842Z,0.60
2023-05-10T07:42:31.039Z,0.70
2023-05-10T07:44:57.669Z,0.70
2023-05-10T07:47:24.453Z,0.87
2023-05-10T07:49:51.242Z,0.83
2023-05-10T07:52:18.149Z,0.70
2023-05-10T07:54:45.596Z,0.90
2023-05-10T07:57:12.321Z,0.90
2023-05-10T07:59:39.342Z,0.80
2023-05-10T08:02:06.444Z,0.80
2023-05-10T08:04:33.128Z,0.80
2023-05-10T08:06:59.799Z,0.70
2023-05-10T08:09:26.899Z,0.60
2023-05-10T08:11:53.545Z,0.80
2023-05-10T08:14:20.686Z,0.73
2023-05-10T08:16:48.420Z,0.70
2023-05-10T08:19:15.127Z,0.50
2023-05-10T08:21:43.327Z,0.90
2023-05-10T08:24:09.983Z,0.80
2023-05-10T08:26:36.657Z,1.00
2023-05-10T08:29:03.411Z,0.67
2023-05-10T08:31:30.116Z,0.60
2023-05-10T08:33:57.558Z,0.83
2023-05-10T08:36:25.268Z,0.63
2023-05-10T08:38:55.797Z,0.60
2023-05-10T08:41:24.726Z,0.57
2023-05-10T08:43:51.729Z,0.70
2023-05-10T08:46:19.772Z,0.70
2023-05-10T08:48:47.425Z,0.73
2023-05-10T08:51:15.969Z,0.63
2023-05-10T08:53:42.827Z,0.47
2023-05-10T08:56:09.566Z,0.50
2023-05-10T08:58:37.662Z,0.67
2023-05-10T09:01:05.360Z,0.63
2023-05-10T09:03:33.286Z,0.50
2023-05-10T09:06:00.000Z,0.47
2023-05-10T09:08:27.472Z,0.50
2023-05-10T09:10:58.823Z,0.50
2023-05-10T09:13:26.981Z,0.60
2023-05-10T09:15:54.178Z,0.50
2023-05-10T09:18:21.044Z,0.73
2023-05-10T09:20:49.308Z,0.40
2023-05-10T09:23:16.060Z,0.60
2023-05-10T09:25:43.580Z,0.43
2023-05-10T09:28:10.842Z,0.70
2023-05-10T09:30:37.718Z,0.40
2023-05-10T09:33:04.593Z,0.40
2023-05-10T09:35:33.118Z,0.50
2023-05-10T09:38:05.162Z,0.40
2023-05-10T09:40:32.409Z,0.40
2023-05-10T09:43:02.664Z,0.50
2023-05-10T09:45:31.479Z,0.30
2023-05-10T09:47:59.879Z,0.40
2023-05-10T09:50:27.010Z,0.33
2023-05-10T09:52:55.717Z,0.40
2023-05-10T09:55:24.156Z,0.50
2023-05-10T09:57:59.937Z,0.50
2023-05-10T10:00:27.285Z,0.40
2023-05-10T10:03:02.933Z,0.60
2023-05-10T10:05:34.412Z,0.43
2023-05-10T10:08:04.100Z,0.60
2023-05-10T10:10:32.291Z,0.53
2023-05-10T10:12:59.386Z,0.50
2023-05-10T10:15:26.251Z,0.30
2023-05-10T10:17:53.722Z,0.50
2023-05-10T10:20:21.954Z,0.40
2023-05-10T10:22:50.657Z,0.47
2023-05-10T10:25:19.120Z,0.50
2023-05-10T10:28:07.654Z,0.60
2023-05-10T10:30:45.221Z,0.43
2023-05-10T10:33:27.372Z,0.40
2023-05-10T10:35:55.916Z,0.50
2023-05-10T10:38:23.688Z,0.57
2023-05-10T10:41:03.365Z,0.50
2023-05-10T10:43:30.466Z,0.50
2023-05-10T10:46:18.039Z,0.50
2023-05-10T10:49:10.308Z,0.40
2023-05-10T10:51:40.572Z,0.40
2023-05-10T10:54:11.552Z,0.47
2023-05-10T10:56:38.754Z,0.60
2023-05-10T10:59:06.033Z,0.50
2023-05-10T11:01:38.862Z,0.50
2023-05-10T11:04:05.590Z,0.37
2023-05-10T11:06:37.129Z,0.30
2023-05-10T11:09:12.368Z,0.40
2023-05-10T11:11:59.440Z,0.23
2023-05-10T11:14:26.899Z,0.50
2023-05-10T11:16:53.869Z,0.40
2023-05-10T11:19:20.724Z,0.50
2023-05-10T11:21:49.984Z,0.50
2023-05-10T11:24:21.564Z,0.50
2023-05-10T11:26:51.138Z,0.50
2023-05-10T11:29:17.907Z,0.47
2023-05-10T11:31:48.465Z,0.50
2023-05-10T11:34:31.232Z,0.63
2023-05-10T11:36:58.800Z,0.63
2023-05-10T11:39:29.964Z,0.60
2023-05-10T11:41:57.478Z,0.50
2023-05-10T11:44:24.837Z,0.67
2023-05-10T11:46:51.841Z,0.67
2023-05-10T11:49:19.042Z,1.40
2023-05-10T11:51:45.795Z,0.60
2023-05-10T11:54:12.582Z,0.50
2023-05-10T11:56:40.868Z,0.57
2023-05-10T11:59:08.908Z,0.63
2023-05-10T12:01:36.389Z,0.80
2023-05-10T12:04:03.595Z,0.67
2023-05-10T12:06:32.714Z,0.80
2023-05-10T12:08:59.813Z,0.80
2023-05-10T12:11:28.245Z,0.87
2023-05-10T12:13:55.999Z,0.60
2023-05-10T12:16:25.183Z,0.70
2023-05-10T12:18:53.707Z,0.70
2023-05-10T12:21:22.052Z,1.03
2023-05-10T12:23:51.541Z,0.70
2023-05-10T12:26:18.305Z,0.70
2023-05-10T12:28:45.370Z,0.63
2023-05-10T12:31:12.014Z,0.80
2023-05-10T12:33:40.569Z,0.70
2023-05-10T12:36:07.726Z,0.77
2023-05-10T12:38:40.017Z,0.70
2023-05-10T12:41:08.539Z,0.60
2023-05-10T12:43:36.176Z,0.80
2023-05-10T12:46:17.418Z,0.80
2023-05-10T12:48:45.462Z,0.90
2023-05-10T12:51:18.055Z,0.80
2023-05-10T12:53:48.714Z,0.93
2023-05-10T12:56:16.176Z,0.70
2023-05-10T12:58:42.843Z,1.00
2023-05-10T13:01:09.548Z,0.60
2023-05-10T13:03:36.766Z,0.70
2023-05-10T13:06:03.670Z,0.80
2023-05-10T13:08:34.376Z,0.80
2023-05-10T13:11:01.953Z,0.90
2023-05-10T13:13:28.576Z,0.73
2023-05-10T13:15:55.420Z,0.80
2023-05-10T13:18:22.657Z,0.70
2023-05-10T13:20:50.658Z,0.67
2023-05-10T13:23:17.370Z,0.77
2023-05-10T13:25:44.457Z,0.60
2023-05-10T13:28:11.333Z,0.70
2023-05-10T13:30:38.018Z,0.70
2023-05-10T13:33:04.716Z,0.70
2023-05-10T13:35:31.738Z,0.80
2023-05-10T13:37:58.714Z,0.80
2023-05-10T13:40:25.398Z,0.70
2023-05-10T13:42:52.240Z,0.63
2023-05-10T13:45:19.183Z,0.70
2023-05-10T13:47:46.148Z,0.70
2023-05-10T13:50:12.820Z,0.73
2023-05-10T13:52:39.425Z,0.70
2023-05-10T13:55:06.394Z,0.77
2023-05-10T13:57:35.325Z,0.70
2023-05-10T14:00:02.238Z,0.80
2023-05-10T14:02:29.180Z,1.07
2023-05-10T14:04:55.896Z,0.60
2023-05-10T14:07:22.691Z,0.80
2023-05-10T14:09:49.409Z,0.80
2023-05-10T14:12:16.338Z,0.60
2023-05-10T14:14:43.404Z,0.67
2023-05-10T14:17:12.226Z,0.63
2023-05-10T14:19:39.739Z,0.70
2023-05-10T14:22:06.612Z,0.60
2023-05-10T14:24:33.584Z,0.90
2023-05-10T14:27:00.227Z,0.70
2023-05-10T14:29:27.077Z,0.60
2023-05-10T14:31:53.842Z,0.60
2023-05-10T14:34:20.891Z,0.70
2023-05-10T14:36:47.507Z,0.53
2023-05-10T14:39:14.309Z,0.70
2023-05-10T14:41:43.869Z,0.50
2023-05-10T14:44:11.019Z,0.60
2023-05-10T14:46:37.969Z,0.90
2023-05-10T14:49:04.594Z,0.60
2023-05-10T14:51:31.225Z,0.60
2023-05-10T14:53:57.879Z,0.60
2023-05-10T14:56:24.521Z,0.70
2023-05-10T14:58:51.313Z,0.73
2023-05-10T15:01:18.602Z,0.60
2023-05-10T15:03:45.885Z,0.70
2023-05-10T15:06:14.612Z,0.63
2023-05-10T15:08:41.207Z,0.60
2023-05-10T15:11:07.922Z,0.70
2023-05-10T15:13:34.583Z,0.60
2023-05-10T15:16:01.315Z,0.70
2023-05-10T15:18:28.593Z,0.50
2023-05-10T15:20:56.196Z,0.50
2023-05-10T15:23:22.904Z,0.70
2023-05-10T15:25:51.307Z,0.70
2023-05-10T15:28:17.980Z,0.50
2023-05-10T15:30:44.960Z,0.60
2023-05-10T15:33:11.838Z,0.70
2023-05-10T15:35:40.683Z,0.67
2023-05-10T15:38:08.058Z,0.77
2023-05-10T15:40:34.770Z,0.70
2023-05-10T15:43:01.417Z,0.80
2023-05-10T15:45:28.172Z,0.80
2023-05-10T15:47:54.840Z,0.60
2023-05-10T15:50:21.506Z,0.70
2023-05-10T15:52:48.135Z,0.73
2023-05-10T15:55:15.439Z,0.67
2023-05-10T15:57:43.575Z,0.67
2023-05-10T16:00:11.316Z,0.70
2023-05-10T16:02:38.078Z,0.50
2023-05-10T16:05:05.270Z,0.50
2023-05-10T16:07:32.174Z,0.63
2023-05-10T16:09:58.835Z,0.77
2023-05-10T16:12:25.541Z,0.50
2023-05-10T16:14:52.366Z,0.50
2023-05-10T16:17:20.373Z,0.60
2023-05-10T16:19:47.534Z,0.70
2023-05-10T16:22:14.913Z,0.50
2023-05-10T16:24:42.377Z,0.50
2023-05-10T16:27:09.014Z,0.60
2023-05-10T16:29:35.863Z,0.50
2023-05-10T16:32:02.482Z,0.50
2023-05-10T16:34:29.117Z,0.57
2023-05-10T16:36:55.729Z,0.50
2023-05-10T16:39:22.371Z,0.50
2023-05-10T16:41:48.977Z,0.63
2023-05-10T16:44:15.576Z,0.60
2023-05-10T16:46:42.397Z,0.70
2023-05-10T16:49:09.213Z,0.33
2023-05-10T16:51:35.978Z,0.50
2023-05-10T16:54:02.645Z,0.53
2023-05-10T16:56:29.430Z,0.33
2023-05-10T16:58:56.044Z,0.40
2023-05-10T17:01:24.382Z,0.40
2023-05-10T17:03:53.216Z,0.40
2023-05-10T17:06:19.922Z,0.50
2023-05-10T17:08:46.877Z,0.50
2023-05-10T17:11:13.743Z,0.40
2023-05-10T17:13:40.460Z,0.30
2023-05-10T17:16:08.244Z,0.60
2023-05-10T17:18:35.079Z,0.50
2023-05-10T17:21:01.823Z,0.40
2023-05-10T17:23:28.543Z,0.50
2023-05-10T17:25:55.326Z,0.50
2023-05-10T17:28:22.132Z,0.50
2023-05-10T17:30:56.402Z,0.40
2023-05-10T17:33:23.485Z,0.50
2023-05-10T17:35:50.472Z,0.50
2023-05-10T17:38:17.109Z,0.50
2023-05-10T17:40:44.094Z,0.60
2023-05-10T17:43:11.184Z,0.73
2023-05-10T17:45:37.831Z,0.60
2023-05-10T17:48:05.147Z,0.80
2023-05-10T17:50:33.021Z,0.50
2023-05-10T17:52:59.678Z,0.40
2023-05-10T17:55:27.079Z,0.60
2023-05-10T17:57:53.820Z,0.50
2023-05-10T18:00:20.734Z,0.60
2023-05-10T18:02:47.823Z,0.60
2023-05-10T18:05:14.898Z,0.50
2023-05-10T18:07:41.974Z,0.40
2023-05-10T18:10:09.259Z,0.40
2023-05-10T18:12:35.910Z,0.50
2023-05-10T18:15:02.536Z,0.50
2023-05-10T18:17:29.356Z,0.50
2023-05-10T18:19:55.993Z,0.50
2023-05-10T18:22:22.646Z,0.50
2023-05-10T18:24:49.389Z,0.50
2023-05-10T18:27:16.016Z,0.70
2023-05-10T18:29:42.620Z,0.40
2023-05-10T18:32:09.694Z,0.60
2023-05-10T18:34:36.357Z,0.37
2023-05-10T18:37:07.519Z,0.60
2023-05-10T18:39:34.649Z,0.60
2023-05-10T18:42:01.665Z,0.60
2023-05-10T18:44:29.009Z,0.50
2023-05-10T18:46:55.855Z,0.50
2023-05-10T18:49:22.645Z,0.60
2023-05-10T18:51:49.361Z,0.60
2023-05-10T18:54:16.803Z,0.70
2023-05-10T18:56:45.217Z,0.60
2023-05-10T18:59:12.573Z,0.70
2023-05-10T19:01:40.909Z,0.53
2023-05-10T19:04:08.935Z,0.60
2023-05-10T19:06:36.247Z,0.70
2023-05-10T19:09:03.369Z,0.60
2023-05-10T19:11:32.341Z,0.80
2023-05-10T19:13:58.997Z,0.77
2023-05-10T19:16:27.382Z,0.70
2023-05-10T19:18:56.842Z,0.77
2023-05-10T19:21:23.564Z,0.70
2023-05-10T19:23:50.820Z,0.80
2023-05-10T19:26:17.762Z,0.70
2023-05-10T19:28:44.544Z,0.77
2023-05-10T19:31:11.564Z,0.70
2023-05-10T19:33:38.469Z,0.70
2023-05-10T19:36:05.284Z,0.70
2023-05-10T19:38:31.925Z,0.80
2023-05-10T19:40:59.289Z,0.70
2023-05-10T19:43:26.753Z,0.80
2023-05-10T19:45:54.241Z,0.80
2023-05-10T19:48:21.347Z,0.53
2023-05-10T19:50:48.037Z,0.70
2023-05-10T19:53:14.728Z,0.70
2023-05-10T19:55:41.587Z,0.83
2023-05-10T19:58:08.326Z,0.90
2023-05-10T20:00:35.544Z,0.80
2023-05-10T20:03:03.093Z,0.70
2023-05-10T20:05:29.753Z,0.70
2023-05-10T20:07:56.416Z,0.80
2023-05-10T20:10:25.186Z,0.70
2023-05-10T20:12:53.785Z,0.70
2023-05-10T20:15:21.810Z,0.90
2023-05-10T20:17:52.709Z,1.00
2023-05-10T20:20:20.622Z,0.70
2023-05-10T20:22:48.504Z,0.70
2023-05-10T20:25:15.889Z,0.80
2023-05-10T20:27:42.773Z,0.70
2023-05-10T20:30:10.386Z,0.80
2023-05-10T20:32:37.882Z,0.70
2023-05-10T20:35:05.580Z,0.60
2023-05-10T20:37:32.420Z,0.77
2023-05-10T20:39:59.201Z,1.00
2023-05-10T20:42:26.365Z,0.80
2023-05-10T20:44:52.998Z,0.80
2023-05-10T20:47:20.244Z,0.70
2023-05-10T20:49:46.907Z,0.80
2023-05-10T20:52:13.967Z,0.70
2023-05-10T20:54:40.674Z,0.70
2023-05-10T20:57:07.420Z,0.90
2023-05-10T20:59:34.316Z,0.80
2023-05-10T21:02:01.155Z,0.60
2023-05-10T21:04:27.978Z,0.80
2023-05-10T21:06:56.839Z,0.90
2023-05-10T21:09:23.534Z,0.80
2023-05-10T21:11:50.731Z,0.77
2023-05-10T21:14:17.416Z,0.80
2023-05-10T21:16:44.089Z,0.80
2023-05-10T21:19:11.166Z,0.63
2023-05-10T21:21:37.857Z,0.73
2023-05-10T21:24:04.848Z,0.53
2023-05-10T21:26:31.942Z,0.70
2023-05-10T21:28:59.258Z,0.60
2023-05-10T21:31:26.037Z,0.60
2023-05-10T21:33:53.142Z,0.43
2023-05-10T21:36:20.266Z,0.70
2023-05-10T21:38:47.026Z,0.57
2023-05-10T21:41:13.759Z,0.50
2023-05-10T21:43:40.443Z,0.53
2023-05-10T21:46:14.907Z,0.50
2023-05-10T21:48:42.086Z,0.60
2023-05-10T21:51:09.110Z,0.60
2023-05-10T21:53:37.230Z,0.40
2023-05-10T21:56:03.859Z,0.47
2023-05-10T21:58:30.527Z,0.40
2023-05-10T22:00:57.249Z,0.63
2023-05-10T22:03:24.108Z,0.70
2023-05-10T22:05:50.853Z,0.50
2023-05-10T22:08:17.510Z,0.50
2023-05-10T22:10:44.169Z,0.67
2023-05-10T22:13:10.867Z,0.50
2023-05-10T22:15:37.577Z,0.50
2023-05-10T22:18:04.724Z,0.50
2023-05-10T22:20:31.903Z,0.40
2023-05-10T22:22:58.599Z,0.50
2023-05-10T22:25:25.683Z,0.40
2023-05-10T22:27:52.293Z,0.47
2023-05-10T22:30:19.893Z,0.50
2023-05-10T22:32:47.199Z,0.57
2023-05-10T22:35:13.933Z,0.50
2023-05-10T22:37:40.542Z,0.60
2023-05-10T22:40:07.908Z,0.60
2023-05-10T22:42:34.557Z,0.70
2023-05-10T22:45:01.679Z,0.40
2023-05-10T22:47:28.371Z,0.60
2023-05-10T22:49:56.064Z,0.50
2023-05-10T22:52:22.718Z,0.40
2023-05-10T22:54:49.443Z,0.60
2023-05-10T22:57:16.359Z,0.50
2023-05-10T22:59:43.582Z,0.50
2023-05-10T23:02:10.552Z,0.60
2023-05-10T23:04:37.324Z,0.60
2023-05-10T23:07:04.072Z,0.63
2023-05-10T23:09:30.675Z,0.60
2023-05-10T23:11:57.443Z,0.53
2023-05-10T23:14:24.116Z,0.50
2023-05-10T23:16:51.211Z,0.60
2023-05-10T23:19:17.818Z,0.70
2023-05-10T23:21:44.940Z,0.50
2023-05-10T23:24:12.194Z,0.60
2023-05-10T23:26:39.129Z,0.50
2023-05-10T23:29:05.881Z,0.70
2023-05-10T23:31:32.548Z,0.60
2023-05-10T23:33:59.284Z,0.60
2023-05-10T23:36:25.925Z,0.60
2023-05-10T23:38:52.527Z,0.60
2023-05-10T23:41:19.471Z,0.40
2023-05-10T23:43:46.150Z,0.53
2023-05-10T23:46:12.795Z,0.60
2023-05-10T23:48:39.458Z,0.40
2023-05-10T23:51:06.302Z,0.70
2023-05-10T23:53:32.964Z,0.50
2023-05-10T23:55:59.656Z,0.50
2023-05-10T23:58:26.288Z,0.60
